sensor_id;sensor_type;location;lat;lon;timestamp;P1;durP1;ratioP1;P2;durP2;ratioP2
70199;SDS011;57587;55.688;37.600;2023-04-01T00:00:59;13.90;;;8.20;;
70199;SDS011;57587;55.688;37.600;2023-04-01T00:03:27;13.55;;;7.75;;
70199;SDS011;57587;55.688;37.600;2023-04-01T00:05:56;14.43;;;7.70;;
70199;SDS011;57587;55.688;37.600;2023-04-01T00:08:25;16.08;;;8.25;;
70199;SDS011;57587;55.688;37.600;2023-04-01T00:10:53;13.18;;;7.38;;
70199;SDS011;57587;55.688;37.600;2023-04-01T00:13:21;13.45;;;7.82;;
70199;SDS011;57587;55.688;37.600;2023-04-01T00:15:48;15.68;;;8.25;;
70199;SDS011;57587;55.688;37.600;2023-04-01T00:18:15;14.70;;;8.00;;
70199;SDS011;57587;55.688;37.600;2023-04-01T00:20:43;16.05;;;8.45;;
70199;SDS011;57587;55.688;37.600;2023-04-01T00:23:13;16.23;;;7.95;;
70199;SDS011;57587;55.688;37.600;2023-04-01T00:25:41;17.52;;;8.40;;
70199;SDS011;57587;55.688;37.600;2023-04-01T00:28:08;14.30;;;8.00;;
70199;SDS011;57587;55.688;37.600;2023-04-01T00:30:35;17.10;;;8.40;;
70199;SDS011;57587;55.688;37.600;2023-04-01T00:33:03;12.82;;;7.57;;
70199;SDS011;57587;55.688;37.600;2023-04-01T00:35:31;17.02;;;8.75;;
70199;SDS011;57587;55.688;37.600;2023-04-01T00:37:59;13.43;;;7.47;;
70199;SDS011;57587;55.688;37.600;2023-04-01T00:40:34;16.60;;;8.63;;
70199;SDS011;57587;55.688;37.600;2023-04-01T00:43:03;15.83;;;8.13;;
70199;SDS011;57587;55.688;37.600;2023-04-01T00:45:47;15.50;;;8.20;;
70199;SDS011;57587;55.688;37.600;2023-04-01T00:48:19;14.75;;;8.50;;
70199;SDS011;57587;55.688;37.600;2023-04-01T00:50:50;14.35;;;8.43;;
70199;SDS011;57587;55.688;37.600;2023-04-01T00:53:21;15.70;;;8.70;;
70199;SDS011;57587;55.688;37.600;2023-04-01T00:55:52;12.67;;;7.57;;
70199;SDS011;57587;55.688;37.600;2023-04-01T00:58:22;14.38;;;8.00;;
70199;SDS011;57587;55.688;37.600;2023-04-01T01:00:51;16.20;;;8.38;;
70199;SDS011;57587;55.688;37.600;2023-04-01T01:03:19;14.40;;;8.50;;
70199;SDS011;57587;55.688;37.600;2023-04-01T01:08:32;14.73;;;8.00;;
70199;SDS011;57587;55.688;37.600;2023-04-01T01:12:01;13.35;;;8.10;;
70199;SDS011;57587;55.688;37.600;2023-04-01T01:17:53;14.95;;;8.27;;
70199;SDS011;57587;55.688;37.600;2023-04-01T01:26:01;19.25;;;8.68;;
70199;SDS011;57587;55.688;37.600;2023-04-01T01:31:43;12.25;;;7.47;;
70199;SDS011;57587;55.688;37.600;2023-04-01T01:37:08;16.53;;;8.67;;
70199;SDS011;57587;55.688;37.600;2023-04-01T01:39:43;15.35;;;8.23;;
70199;SDS011;57587;55.688;37.600;2023-04-01T01:42:15;16.83;;;9.45;;
70199;SDS011;57587;55.688;37.600;2023-04-01T01:44:45;14.60;;;8.07;;
70199;SDS011;57587;55.688;37.600;2023-04-01T01:47:16;16.42;;;8.80;;
70199;SDS011;57587;55.688;37.600;2023-04-01T01:49:46;16.70;;;8.80;;
70199;SDS011;57587;55.688;37.600;2023-04-01T01:52:14;16.98;;;8.68;;
70199;SDS011;57587;55.688;37.600;2023-04-01T01:54:47;15.07;;;8.45;;
70199;SDS011;57587;55.688;37.600;2023-04-01T01:57:31;15.98;;;8.55;;
70199;SDS011;57587;55.688;37.600;2023-04-01T02:00:07;15.38;;;7.85;;
70199;SDS011;57587;55.688;37.600;2023-04-01T02:02:43;18.97;;;9.40;;
70199;SDS011;57587;55.688;37.600;2023-04-01T02:05:20;16.67;;;8.63;;
70199;SDS011;57587;55.688;37.600;2023-04-01T02:08:02;16.17;;;8.60;;
70199;SDS011;57587;55.688;37.600;2023-04-01T02:10:35;14.45;;;7.97;;
70199;SDS011;57587;55.688;37.600;2023-04-01T02:13:13;15.43;;;9.18;;
70199;SDS011;57587;55.688;37.600;2023-04-01T02:15:47;17.10;;;8.70;;
70199;SDS011;57587;55.688;37.600;2023-04-01T02:18:17;14.23;;;8.35;;
70199;SDS011;57587;55.688;37.600;2023-04-01T02:20:47;17.77;;;8.80;;
70199;SDS011;57587;55.688;37.600;2023-04-01T02:23:15;15.25;;;8.85;;
70199;SDS011;57587;55.688;37.600;2023-04-01T02:25:43;15.02;;;9.15;;
70199;SDS011;57587;55.688;37.600;2023-04-01T02:28:10;16.53;;;8.50;;
70199;SDS011;57587;55.688;37.600;2023-04-01T02:30:42;13.13;;;8.23;;
70199;SDS011;57587;55.688;37.600;2023-04-01T02:33:11;16.13;;;8.60;;
70199;SDS011;57587;55.688;37.600;2023-04-01T02:35:39;16.88;;;9.90;;
70199;SDS011;57587;55.688;37.600;2023-04-01T02:38:06;16.50;;;9.13;;
70199;SDS011;57587;55.688;37.600;2023-04-01T02:40:41;18.20;;;9.37;;
70199;SDS011;57587;55.688;37.600;2023-04-01T02:43:16;19.27;;;9.27;;
70199;SDS011;57587;55.688;37.600;2023-04-01T02:45:44;15.40;;;8.85;;
70199;SDS011;57587;55.688;37.600;2023-04-01T02:48:11;15.93;;;8.60;;
70199;SDS011;57587;55.688;37.600;2023-04-01T02:50:39;18.58;;;9.85;;
70199;SDS011;57587;55.688;37.600;2023-04-01T02:53:07;16.23;;;8.97;;
70199;SDS011;57587;55.688;37.600;2023-04-01T02:55:34;16.50;;;8.90;;
70199;SDS011;57587;55.688;37.600;2023-04-01T02:58:01;18.95;;;9.05;;
70199;SDS011;57587;55.688;37.600;2023-04-01T03:00:29;16.70;;;8.68;;
70199;SDS011;57587;55.688;37.600;2023-04-01T03:02:57;17.13;;;9.30;;
70199;SDS011;57587;55.688;37.600;2023-04-01T03:05:24;18.50;;;9.33;;
70199;SDS011;57587;55.688;37.600;2023-04-01T03:07:51;18.05;;;8.65;;
70199;SDS011;57587;55.688;37.600;2023-04-01T03:10:19;16.17;;;9.00;;
70199;SDS011;57587;55.688;37.600;2023-04-01T03:12:46;17.85;;;9.75;;
70199;SDS011;57587;55.688;37.600;2023-04-01T03:15:13;17.58;;;9.65;;
70199;SDS011;57587;55.688;37.600;2023-04-01T03:17:41;17.10;;;8.20;;
70199;SDS011;57587;55.688;37.600;2023-04-01T03:20:10;19.25;;;9.23;;
70199;SDS011;57587;55.688;37.600;2023-04-01T03:22:38;15.88;;;8.93;;
70199;SDS011;57587;55.688;37.600;2023-04-01T03:25:08;15.55;;;8.57;;
70199;SDS011;57587;55.688;37.600;2023-04-01T03:27:38;18.23;;;9.00;;
70199;SDS011;57587;55.688;37.600;2023-04-01T03:30:07;14.90;;;8.70;;
70199;SDS011;57587;55.688;37.600;2023-04-01T03:32:42;16.90;;;9.15;;
70199;SDS011;57587;55.688;37.600;2023-04-01T03:35:10;16.52;;;9.18;;
70199;SDS011;57587;55.688;37.600;2023-04-01T03:37:37;16.80;;;9.02;;
70199;SDS011;57587;55.688;37.600;2023-04-01T03:40:05;17.55;;;9.10;;
70199;SDS011;57587;55.688;37.600;2023-04-01T03:42:33;18.27;;;9.93;;
70199;SDS011;57587;55.688;37.600;2023-04-01T03:45:00;17.05;;;8.93;;
70199;SDS011;57587;55.688;37.600;2023-04-01T03:47:28;17.10;;;9.32;;
70199;SDS011;57587;55.688;37.600;2023-04-01T03:49:56;15.75;;;9.20;;
70199;SDS011;57587;55.688;37.600;2023-04-01T03:52:25;16.52;;;9.13;;
70199;SDS011;57587;55.688;37.600;2023-04-01T03:54:52;15.53;;;8.50;;
70199;SDS011;57587;55.688;37.600;2023-04-01T03:57:19;15.50;;;8.48;;
70199;SDS011;57587;55.688;37.600;2023-04-01T03:59:46;16.85;;;9.55;;
70199;SDS011;57587;55.688;37.600;2023-04-01T04:02:13;15.45;;;9.27;;
70199;SDS011;57587;55.688;37.600;2023-04-01T04:04:41;15.85;;;8.75;;
70199;SDS011;57587;55.688;37.600;2023-04-01T04:07:09;17.40;;;9.57;;
70199;SDS011;57587;55.688;37.600;2023-04-01T04:09:56;17.13;;;8.75;;
70199;SDS011;57587;55.688;37.600;2023-04-01T04:12:23;16.40;;;8.98;;
70199;SDS011;57587;55.688;37.600;2023-04-01T04:14:50;15.00;;;8.80;;
70199;SDS011;57587;55.688;37.600;2023-04-01T04:17:17;16.98;;;8.63;;
70199;SDS011;57587;55.688;37.600;2023-04-01T04:19:45;15.63;;;9.07;;
70199;SDS011;57587;55.688;37.600;2023-04-01T04:22:15;17.08;;;8.80;;
70199;SDS011;57587;55.688;37.600;2023-04-01T04:24:42;15.20;;;8.88;;
70199;SDS011;57587;55.688;37.600;2023-04-01T04:27:11;14.13;;;8.73;;
70199;SDS011;57587;55.688;37.600;2023-04-01T04:29:59;15.38;;;8.80;;
70199;SDS011;57587;55.688;37.600;2023-04-01T04:32:26;16.73;;;9.40;;
70199;SDS011;57587;55.688;37.600;2023-04-01T04:34:55;13.13;;;8.27;;
70199;SDS011;57587;55.688;37.600;2023-04-01T04:37:22;15.00;;;8.10;;
70199;SDS011;57587;55.688;37.600;2023-04-01T04:39:49;13.20;;;8.15;;
70199;SDS011;57587;55.688;37.600;2023-04-01T04:42:16;16.83;;;8.52;;
70199;SDS011;57587;55.688;37.600;2023-04-01T04:44:44;16.43;;;9.00;;
70199;SDS011;57587;55.688;37.600;2023-04-01T04:47:11;13.48;;;8.25;;
70199;SDS011;57587;55.688;37.600;2023-04-01T04:49:38;15.73;;;8.88;;
70199;SDS011;57587;55.688;37.600;2023-04-01T04:52:08;16.75;;;8.48;;
70199;SDS011;57587;55.688;37.600;2023-04-01T04:54:35;14.02;;;8.38;;
70199;SDS011;57587;55.688;37.600;2023-04-01T04:57:03;12.90;;;8.13;;
70199;SDS011;57587;55.688;37.600;2023-04-01T04:59:36;14.23;;;8.23;;
70199;SDS011;57587;55.688;37.600;2023-04-01T05:02:13;16.50;;;8.90;;
70199;SDS011;57587;55.688;37.600;2023-04-01T05:04:40;16.42;;;9.35;;
70199;SDS011;57587;55.688;37.600;2023-04-01T05:07:09;14.60;;;8.90;;
70199;SDS011;57587;55.688;37.600;2023-04-01T05:09:37;15.00;;;7.93;;
70199;SDS011;57587;55.688;37.600;2023-04-01T05:12:04;14.38;;;8.25;;
70199;SDS011;57587;55.688;37.600;2023-04-01T05:14:55;15.20;;;8.75;;
70199;SDS011;57587;55.688;37.600;2023-04-01T05:17:23;14.65;;;8.20;;
70199;SDS011;57587;55.688;37.600;2023-04-01T05:19:50;17.40;;;9.00;;
70199;SDS011;57587;55.688;37.600;2023-04-01T05:22:17;13.43;;;8.50;;
70199;SDS011;57587;55.688;37.600;2023-04-01T05:24:44;15.05;;;9.02;;
70199;SDS011;57587;55.688;37.600;2023-04-01T05:27:12;17.50;;;9.13;;
70199;SDS011;57587;55.688;37.600;2023-04-01T05:29:40;17.08;;;8.70;;
70199;SDS011;57587;55.688;37.600;2023-04-01T05:32:15;30.65;;;18.00;;
70199;SDS011;57587;55.688;37.600;2023-04-01T05:34:42;36.53;;;22.50;;
70199;SDS011;57587;55.688;37.600;2023-04-01T05:37:09;18.27;;;11.40;;
70199;SDS011;57587;55.688;37.600;2023-04-01T05:39:37;14.25;;;8.35;;
70199;SDS011;57587;55.688;37.600;2023-04-01T05:42:05;17.30;;;8.90;;
70199;SDS011;57587;55.688;37.600;2023-04-01T05:44:33;13.88;;;8.40;;
70199;SDS011;57587;55.688;37.600;2023-04-01T05:47:02;13.27;;;8.00;;
70199;SDS011;57587;55.688;37.600;2023-04-01T05:49:30;13.40;;;7.65;;
70199;SDS011;57587;55.688;37.600;2023-04-01T05:51:58;14.88;;;8.35;;
70199;SDS011;57587;55.688;37.600;2023-04-01T05:54:26;14.45;;;8.75;;
70199;SDS011;57587;55.688;37.600;2023-04-01T05:56:54;16.30;;;8.57;;
70199;SDS011;57587;55.688;37.600;2023-04-01T05:59:21;13.37;;;8.00;;
70199;SDS011;57587;55.688;37.600;2023-04-01T06:01:49;16.23;;;8.35;;
70199;SDS011;57587;55.688;37.600;2023-04-01T06:04:19;16.95;;;8.38;;
70199;SDS011;57587;55.688;37.600;2023-04-01T06:06:46;14.15;;;8.93;;
70199;SDS011;57587;55.688;37.600;2023-04-01T06:33:00;13.48;;;8.20;;
70199;SDS011;57587;55.688;37.600;2023-04-01T06:46:55;18.90;;;10.63;;
70199;SDS011;57587;55.688;37.600;2023-04-01T06:49:48;16.40;;;9.10;;
70199;SDS011;57587;55.688;37.600;2023-04-01T06:53:03;16.00;;;8.45;;
70199;SDS011;57587;55.688;37.600;2023-04-01T06:56:05;15.67;;;8.43;;
70199;SDS011;57587;55.688;37.600;2023-04-01T07:01:38;17.55;;;9.63;;
70199;SDS011;57587;55.688;37.600;2023-04-01T07:04:11;16.17;;;8.63;;
70199;SDS011;57587;55.688;37.600;2023-04-01T07:06:54;15.82;;;8.95;;
70199;SDS011;57587;55.688;37.600;2023-04-01T07:09:26;15.80;;;8.90;;
70199;SDS011;57587;55.688;37.600;2023-04-01T07:15:19;16.40;;;9.07;;
70199;SDS011;57587;55.688;37.600;2023-04-01T07:17:53;15.88;;;9.93;;
70199;SDS011;57587;55.688;37.600;2023-04-01T07:20:26;15.30;;;9.50;;
70199;SDS011;57587;55.688;37.600;2023-04-01T07:22:58;18.40;;;9.70;;
70199;SDS011;57587;55.688;37.600;2023-04-01T07:25:51;17.73;;;9.57;;
70199;SDS011;57587;55.688;37.600;2023-04-01T07:28:32;15.63;;;9.45;;
70199;SDS011;57587;55.688;37.600;2023-04-01T07:34:19;16.02;;;9.68;;
70199;SDS011;57587;55.688;37.600;2023-04-01T07:42:45;16.48;;;9.63;;
70199;SDS011;57587;55.688;37.600;2023-04-01T07:54:59;22.23;;;11.70;;
70199;SDS011;57587;55.688;37.600;2023-04-01T07:57:51;17.77;;;11.13;;
70199;SDS011;57587;55.688;37.600;2023-04-01T08:03:51;20.83;;;11.00;;
70199;SDS011;57587;55.688;37.600;2023-04-01T08:09:31;17.40;;;10.77;;
70199;SDS011;57587;55.688;37.600;2023-04-01T08:16:26;17.73;;;9.77;;
70199;SDS011;57587;55.688;37.600;2023-04-01T08:19:38;16.80;;;10.73;;
70199;SDS011;57587;55.688;37.600;2023-04-01T08:22:23;18.73;;;11.83;;
70199;SDS011;57587;55.688;37.600;2023-04-01T08:25:38;18.75;;;11.18;;
70199;SDS011;57587;55.688;37.600;2023-04-01T08:28:34;19.00;;;11.93;;
70199;SDS011;57587;55.688;37.600;2023-04-01T08:31:19;23.38;;;13.45;;
70199;SDS011;57587;55.688;37.600;2023-04-01T08:34:05;18.13;;;13.00;;
70199;SDS011;57587;55.688;37.600;2023-04-01T08:37:11;17.13;;;10.63;;
70199;SDS011;57587;55.688;37.600;2023-04-01T08:39:51;20.15;;;11.07;;
70199;SDS011;57587;55.688;37.600;2023-04-01T08:45:18;18.30;;;11.57;;
70199;SDS011;57587;55.688;37.600;2023-04-01T09:00:20;15.40;;;9.77;;
70199;SDS011;57587;55.688;37.600;2023-04-01T09:14:41;15.15;;;10.45;;
70199;SDS011;57587;55.688;37.600;2023-04-01T09:20:26;17.57;;;11.00;;
70199;SDS011;57587;55.688;37.600;2023-04-01T09:25:51;17.00;;;11.07;;
70199;SDS011;57587;55.688;37.600;2023-04-01T09:28:34;13.35;;;10.77;;
70199;SDS011;57587;55.688;37.600;2023-04-01T09:39:36;13.70;;;9.25;;
70199;SDS011;57587;55.688;37.600;2023-04-01T10:13:48;11.05;;;7.75;;
70199;SDS011;57587;55.688;37.600;2023-04-01T10:16:42;12.80;;;7.17;;
70199;SDS011;57587;55.688;37.600;2023-04-01T10:19:09;11.55;;;8.25;;
70199;SDS011;57587;55.688;37.600;2023-04-01T10:52:17;13.40;;;6.95;;
70199;SDS011;57587;55.688;37.600;2023-04-01T11:30:07;8.52;;;4.90;;
70199;SDS011;57587;55.688;37.600;2023-04-01T11:44:30;9.52;;;4.63;;
70199;SDS011;57587;55.688;37.600;2023-04-01T11:47:15;10.50;;;4.65;;
70199;SDS011;57587;55.688;37.600;2023-04-01T11:58:11;9.68;;;5.38;;
70199;SDS011;57587;55.688;37.600;2023-04-01T12:04:10;12.60;;;5.40;;
70199;SDS011;57587;55.688;37.600;2023-04-01T12:07:02;10.57;;;4.97;;
70199;SDS011;57587;55.688;37.600;2023-04-01T12:15:47;13.15;;;5.55;;
70199;SDS011;57587;55.688;37.600;2023-04-01T12:21:25;8.85;;;4.82;;
70199;SDS011;57587;55.688;37.600;2023-04-01T12:32:12;10.18;;;5.28;;
70199;SDS011;57587;55.688;37.600;2023-04-01T12:39:51;12.05;;;5.30;;
70199;SDS011;57587;55.688;37.600;2023-04-01T12:45:35;13.18;;;5.57;;
70199;SDS011;57587;55.688;37.600;2023-04-01T13:11:23;11.20;;;6.05;;
70199;SDS011;57587;55.688;37.600;2023-04-01T13:16:54;17.73;;;6.82;;
70199;SDS011;57587;55.688;37.600;2023-04-01T13:22:06;12.27;;;6.35;;
70199;SDS011;57587;55.688;37.600;2023-04-01T13:33:04;17.37;;;7.07;;
70199;SDS011;57587;55.688;37.600;2023-04-01T13:44:21;13.10;;;6.35;;
70199;SDS011;57587;55.688;37.600;2023-04-01T13:56:12;11.65;;;5.75;;
70199;SDS011;57587;55.688;37.600;2023-04-01T14:10:19;11.30;;;5.88;;
70199;SDS011;57587;55.688;37.600;2023-04-01T14:12:59;19.20;;;6.38;;
70199;SDS011;57587;55.688;37.600;2023-04-01T14:21:29;14.30;;;7.10;;
70199;SDS011;57587;55.688;37.600;2023-04-01T14:24:22;17.55;;;6.82;;
70199;SDS011;57587;55.688;37.600;2023-04-01T14:27:36;16.58;;;7.10;;
70199;SDS011;57587;55.688;37.600;2023-04-01T14:30:27;15.60;;;6.93;;
70199;SDS011;57587;55.688;37.600;2023-04-01T14:36:08;14.00;;;7.82;;
70199;SDS011;57587;55.688;37.600;2023-04-01T14:55:44;16.85;;;8.35;;
70199;SDS011;57587;55.688;37.600;2023-04-01T14:58:17;14.40;;;7.67;;
70199;SDS011;57587;55.688;37.600;2023-04-01T15:14:31;17.38;;;9.00;;
70199;SDS011;57587;55.688;37.600;2023-04-01T15:22:26;18.48;;;9.80;;
70199;SDS011;57587;55.688;37.600;2023-04-01T15:41:34;18.38;;;9.85;;
70199;SDS011;57587;55.688;37.600;2023-04-01T15:44:02;18.10;;;10.48;;
70199;SDS011;57587;55.688;37.600;2023-04-01T15:49:02;20.45;;;9.70;;
70199;SDS011;57587;55.688;37.600;2023-04-01T15:54:59;17.73;;;9.55;;
70199;SDS011;57587;55.688;37.600;2023-04-01T16:00:13;19.52;;;10.02;;
70199;SDS011;57587;55.688;37.600;2023-04-01T16:03:16;19.35;;;10.90;;
70199;SDS011;57587;55.688;37.600;2023-04-01T16:06:08;20.17;;;10.30;;
70199;SDS011;57587;55.688;37.600;2023-04-01T16:08:48;18.02;;;10.25;;
70199;SDS011;57587;55.688;37.600;2023-04-01T16:17:16;18.92;;;10.98;;
70199;SDS011;57587;55.688;37.600;2023-04-01T16:20:01;17.33;;;9.63;;
70199;SDS011;57587;55.688;37.600;2023-04-01T16:22:57;16.15;;;9.68;;
70199;SDS011;57587;55.688;37.600;2023-04-01T16:25:45;18.42;;;9.88;;
70199;SDS011;57587;55.688;37.600;2023-04-01T16:28:33;17.35;;;9.43;;
70199;SDS011;57587;55.688;37.600;2023-04-01T16:31:16;17.08;;;10.10;;
70199;SDS011;57587;55.688;37.600;2023-04-01T16:34:04;17.43;;;10.00;;
70199;SDS011;57587;55.688;37.600;2023-04-01T16:39:28;15.55;;;9.15;;
70199;SDS011;57587;55.688;37.600;2023-04-01T16:44:48;19.58;;;10.65;;
70199;SDS011;57587;55.688;37.600;2023-04-01T16:47:22;16.43;;;10.13;;
70199;SDS011;57587;55.688;37.600;2023-04-01T16:58:35;19.38;;;10.48;;
70199;SDS011;57587;55.688;37.600;2023-04-01T17:01:05;24.60;;;12.00;;
70199;SDS011;57587;55.688;37.600;2023-04-01T17:03:40;23.63;;;11.50;;
70199;SDS011;57587;55.688;37.600;2023-04-01T17:11:24;19.02;;;10.57;;
70199;SDS011;57587;55.688;37.600;2023-04-01T17:14:17;19.07;;;10.97;;
70199;SDS011;57587;55.688;37.600;2023-04-01T17:30:13;20.60;;;10.38;;
70199;SDS011;57587;55.688;37.600;2023-04-01T17:36:02;16.38;;;9.43;;
70199;SDS011;57587;55.688;37.600;2023-04-01T17:39:15;15.23;;;9.75;;
70199;SDS011;57587;55.688;37.600;2023-04-01T17:49:52;19.60;;;10.20;;
70199;SDS011;57587;55.688;37.600;2023-04-01T17:52:39;20.98;;;11.45;;
70199;SDS011;57587;55.688;37.600;2023-04-01T17:58:07;19.83;;;10.73;;
70199;SDS011;57587;55.688;37.600;2023-04-01T18:11:49;18.90;;;11.65;;
70199;SDS011;57587;55.688;37.600;2023-04-01T18:22:33;19.17;;;11.07;;
70199;SDS011;57587;55.688;37.600;2023-04-01T18:27:47;17.50;;;10.73;;
70199;SDS011;57587;55.688;37.600;2023-04-01T18:30:31;19.63;;;10.90;;
70199;SDS011;57587;55.688;37.600;2023-04-01T18:33:07;17.52;;;10.25;;
70199;SDS011;57587;55.688;37.600;2023-04-01T18:38:45;21.52;;;10.65;;
70199;SDS011;57587;55.688;37.600;2023-04-01T18:41:33;25.50;;;13.73;;
70199;SDS011;57587;55.688;37.600;2023-04-01T18:49:44;20.97;;;11.10;;
70199;SDS011;57587;55.688;37.600;2023-04-01T18:52:34;21.38;;;11.02;;
70199;SDS011;57587;55.688;37.600;2023-04-01T18:57:41;22.00;;;11.70;;
70199;SDS011;57587;55.688;37.600;2023-04-01T19:00:22;18.48;;;11.13;;
70199;SDS011;57587;55.688;37.600;2023-04-01T19:03:25;18.73;;;10.33;;
70199;SDS011;57587;55.688;37.600;2023-04-01T19:05:54;21.17;;;11.13;;
70199;SDS011;57587;55.688;37.600;2023-04-01T19:08:33;21.65;;;11.85;;
70199;SDS011;57587;55.688;37.600;2023-04-01T19:14:13;18.17;;;11.23;;
70199;SDS011;57587;55.688;37.600;2023-04-01T19:22:13;20.02;;;11.13;;
70199;SDS011;57587;55.688;37.600;2023-04-01T19:28:16;22.83;;;11.90;;
70199;SDS011;57587;55.688;37.600;2023-04-01T19:30:51;21.23;;;11.80;;
70199;SDS011;57587;55.688;37.600;2023-04-01T19:33:32;25.10;;;12.73;;
70199;SDS011;57587;55.688;37.600;2023-04-01T19:36:09;23.10;;;11.82;;
70199;SDS011;57587;55.688;37.600;2023-04-01T19:41:31;20.27;;;11.13;;
70199;SDS011;57587;55.688;37.600;2023-04-01T19:46:43;19.77;;;11.35;;
70199;SDS011;57587;55.688;37.600;2023-04-01T19:56:47;25.03;;;12.00;;
70199;SDS011;57587;55.688;37.600;2023-04-01T19:59:18;19.10;;;11.02;;
70199;SDS011;57587;55.688;37.600;2023-04-01T20:04:42;23.73;;;11.50;;
70199;SDS011;57587;55.688;37.600;2023-04-01T20:15:35;23.33;;;11.75;;
70199;SDS011;57587;55.688;37.600;2023-04-01T20:21:00;20.70;;;11.35;;
70199;SDS011;57587;55.688;37.600;2023-04-01T20:23:39;21.67;;;11.80;;
70199;SDS011;57587;55.688;37.600;2023-04-01T20:26:12;25.98;;;14.48;;
70199;SDS011;57587;55.688;37.600;2023-04-01T20:34:02;22.90;;;11.93;;
70199;SDS011;57587;55.688;37.600;2023-04-01T20:36:56;23.03;;;12.30;;
70199;SDS011;57587;55.688;37.600;2023-04-01T20:51:37;21.77;;;11.03;;
70199;SDS011;57587;55.688;37.600;2023-04-01T20:59:38;23.13;;;11.52;;
70199;SDS011;57587;55.688;37.600;2023-04-01T21:05:17;22.73;;;10.83;;
70199;SDS011;57587;55.688;37.600;2023-04-01T21:31:35;23.02;;;11.63;;
70199;SDS011;57587;55.688;37.600;2023-04-01T21:37:05;22.73;;;11.52;;
70199;SDS011;57587;55.688;37.600;2023-04-01T21:59:21;26.15;;;11.90;;
70199;SDS011;57587;55.688;37.600;2023-04-01T22:02:20;21.47;;;10.70;;
70199;SDS011;57587;55.688;37.600;2023-04-01T22:04:59;24.95;;;11.88;;
70199;SDS011;57587;55.688;37.600;2023-04-01T22:07:39;22.77;;;11.88;;
70199;SDS011;57587;55.688;37.600;2023-04-01T22:10:18;27.65;;;11.45;;
70199;SDS011;57587;55.688;37.600;2023-04-01T22:21:12;21.70;;;11.65;;
70199;SDS011;57587;55.688;37.600;2023-04-01T22:26:44;27.55;;;12.70;;
70199;SDS011;57587;55.688;37.600;2023-04-01T22:34:42;23.55;;;12.43;;
70199;SDS011;57587;55.688;37.600;2023-04-01T22:37:31;25.42;;;12.07;;
70199;SDS011;57587;55.688;37.600;2023-04-01T22:42:47;24.80;;;13.00;;
70199;SDS011;57587;55.688;37.600;2023-04-01T22:48:26;28.50;;;14.32;;
70199;SDS011;57587;55.688;37.600;2023-04-01T22:51:38;25.83;;;13.55;;
70199;SDS011;57587;55.688;37.600;2023-04-01T22:54:15;23.63;;;12.35;;
70199;SDS011;57587;55.688;37.600;2023-04-01T22:57:03;26.90;;;13.07;;
70199;SDS011;57587;55.688;37.600;2023-04-01T22:59:37;24.80;;;12.52;;
70199;SDS011;57587;55.688;37.600;2023-04-01T23:02:21;28.73;;;14.32;;
70199;SDS011;57587;55.688;37.600;2023-04-01T23:05:15;22.60;;;12.85;;
70199;SDS011;57587;55.688;37.600;2023-04-01T23:07:56;24.45;;;13.57;;
70199;SDS011;57587;55.688;37.600;2023-04-01T23:10:42;25.93;;;13.13;;
70199;SDS011;57587;55.688;37.600;2023-04-01T23:13:16;28.35;;;13.60;;
70199;SDS011;57587;55.688;37.600;2023-04-01T23:15:48;27.70;;;13.98;;
70199;SDS011;57587;55.688;37.600;2023-04-01T23:23:53;30.13;;;13.63;;
70199;SDS011;57587;55.688;37.600;2023-04-01T23:27:04;32.22;;;14.38;;
70199;SDS011;57587;55.688;37.600;2023-04-01T23:29:37;34.42;;;14.25;;
70199;SDS011;57587;55.688;37.600;2023-04-01T23:32:13;32.60;;;14.38;;
70199;SDS011;57587;55.688;37.600;2023-04-01T23:34:44;30.10;;;13.52;;
70199;SDS011;57587;55.688;37.600;2023-04-01T23:37:15;30.13;;;14.23;;
70199;SDS011;57587;55.688;37.600;2023-04-01T23:39:45;29.48;;;13.93;;
70199;SDS011;57587;55.688;37.600;2023-04-01T23:42:22;31.27;;;15.18;;
70199;SDS011;57587;55.688;37.600;2023-04-01T23:45:19;28.55;;;14.23;;
70199;SDS011;57587;55.688;37.600;2023-04-01T23:47:47;34.30;;;15.30;;
70199;SDS011;57587;55.688;37.600;2023-04-01T23:50:24;33.20;;;15.53;;
70199;SDS011;57587;55.688;37.600;2023-04-01T23:52:56;29.40;;;14.02;;
70199;SDS011;57587;55.688;37.600;2023-04-01T23:55:32;31.85;;;14.55;;
